Time;durP1;ratioP1;P1;durP2;ratioP2;P2;SDS_P1;SDS_P2;PMS_P1;PMS_P2;Temp;Humidity;BMP_temperature;BMP_pressure;BME280_temperature;BME280_humidity;BME280_pressure;Samples;Min_cycle;Max_cycle;Signal;HPM_P1;HPM_P2
2021/11/11 00:01:45;;;;;;;7.43;5.18;;;17.80;59.60;;;;;;4921603;28;20032;-63
2021/11/11 00:04:11;;;;;;;7.28;5.30;;;17.80;59.60;;;;;;4921032;28;20051;-63
2021/11/11 00:06:37;;;;;;;10.38;5.10;;;17.80;59.50;;;;;;4937744;28;20023;-63
2021/11/11 00:09:03;;;;;;;9.80;5.38;;;17.80;59.50;;;;;;4940359;28;20139;-64
2021/11/11 00:11:29;;;;;;;8.75;5.45;;;17.80;59.50;;;;;;4940121;28;20130;-64
2021/11/11 00:13:54;;;;;;;8.52;5.63;;;17.80;59.40;;;;;;4940387;28;20106;-63
2021/11/11 00:16:20;;;;;;;7.47;5.35;;;17.80;59.30;;;;;;4936080;28;20042;-64
2021/11/11 00:18:46;;;;;;;6.60;4.82;;;17.80;59.20;;;;;;4936982;28;20028;-64
2021/11/11 00:21:11;;;;;;;6.68;5.18;;;17.80;59.10;;;;;;4929357;28;20028;-64
2021/11/11 00:23:37;;;;;;;7.22;4.55;;;17.90;59.00;;;;;;4921556;28;20103;-63
2021/11/11 00:26:02;;;;;;;7.97;5.28;;;17.90;59.00;;;;;;4928978;28;20035;-63
2021/11/11 00:28:28;;;;;;;6.75;4.75;;;17.90;58.90;;;;;;4940651;28;20066;-63
2021/11/11 00:30:53;;;;;;;6.82;5.20;;;17.90;58.80;;;;;;4940354;28;20102;-63
2021/11/11 00:33:19;;;;;;;5.40;4.90;;;17.90;58.70;;;;;;4940701;28;20417;-63
2021/11/11 00:35:44;;;;;;;6.38;4.63;;;17.80;58.70;;;;;;4941139;28;20045;-64
2021/11/11 00:38:10;;;;;;;7.80;4.72;;;17.90;58.70;;;;;;4940747;28;20035;-63
2021/11/11 00:40:35;;;;;;;8.50;5.00;;;17.90;58.60;;;;;;4942774;28;20457;-63
2021/11/11 00:43:01;;;;;;;5.18;4.68;;;17.90;58.60;;;;;;4926906;28;20060;-63
2021/11/11 00:45:27;;;;;;;6.35;4.80;;;17.90;58.50;;;;;;4931622;28;22796;-63
2021/11/11 00:47:54;;;;;;;6.78;4.70;;;17.90;58.40;;;;;;4944640;28;20043;-63
2021/11/11 00:50:20;;;;;;;8.43;4.70;;;17.90;58.40;;;;;;4945202;28;20051;-63
2021/11/11 00:52:46;;;;;;;6.40;4.65;;;17.90;58.40;;;;;;4936792;28;20028;-63
2021/11/11 00:55:11;;;;;;;4.85;4.30;;;17.90;58.40;;;;;;4924706;28;20062;-63
2021/11/11 00:57:37;;;;;;;8.27;5.00;;;17.90;58.30;;;;;;4930117;28;20052;-63
2021/11/11 01:00:05;;;;;;;7.03;5.03;;;17.90;58.30;;;;;;4935219;28;20034;-64
2021/11/11 01:02:31;;;;;;;6.15;4.20;;;17.90;58.30;;;;;;4937600;28;20038;-63
2021/11/11 01:04:56;;;;;;;6.00;4.28;;;17.80;58.40;;;;;;4928962;28;20420;-63
2021/11/11 01:07:22;;;;;;;6.00;4.43;;;17.80;58.40;;;;;;4942985;28;20071;-63
2021/11/11 01:09:48;;;;;;;8.10;4.80;;;17.80;58.40;;;;;;4925108;28;20034;-64
2021/11/11 01:12:13;;;;;;;4.90;4.32;;;17.70;58.40;;;;;;4927976;28;20028;-64
2021/11/11 01:14:39;;;;;;;5.55;4.72;;;17.70;58.40;;;;;;4932352;28;20494;-63
2021/11/11 01:17:05;;;;;;;4.65;4.07;;;17.70;59.10;;;;;;4937365;28;20055;-63
2021/11/11 01:19:30;;;;;;;5.63;4.82;;;17.60;58.40;;;;;;4942151;28;20448;-63
2021/11/11 01:21:56;;;;;;;5.55;4.50;;;17.60;58.50;;;;;;4939820;28;20047;-63
2021/11/11 01:24:21;;;;;;;7.45;4.60;;;17.60;58.40;;;;;;4931395;28;20039;-63
2021/11/11 01:26:47;;;;;;;4.68;4.18;;;17.60;58.50;;;;;;4928344;28;20048;-66
2021/11/11 01:29:12;;;;;;;6.68;4.32;;;17.50;58.40;;;;;;4929180;28;20035;-64
2021/11/11 01:31:38;;;;;;;5.38;4.60;;;17.50;58.40;;;;;;4940691;28;20028;-63
2021/11/11 01:34:03;;;;;;;4.90;4.40;;;17.50;58.40;;;;;;4933246;28;20053;-63
2021/11/11 01:36:29;;;;;;;5.35;3.75;;;17.50;58.40;;;;;;4922730;29;20104;-63
2021/11/11 01:38:54;;;;;;;5.72;4.93;;;17.50;58.30;;;;;;4928257;28;20066;-63
2021/11/11 01:41:20;;;;;;;5.63;3.90;;;17.50;58.30;;;;;;4936825;28;20055;-63
2021/11/11 01:43:46;;;;;;;7.68;5.18;;;17.50;58.30;;;;;;4936703;28;20997;-63
2021/11/11 01:46:11;;;;;;;5.32;4.82;;;17.50;58.30;;;;;;4935526;28;20032;-63
2021/11/11 01:48:37;;;;;;;5.68;4.63;;;17.50;58.20;;;;;;4931492;28;20464;-64
2021/11/11 01:51:02;;;;;;;5.32;4.05;;;17.50;58.80;;;;;;4931224;28;20095;-63
2021/11/11 01:53:28;;;;;;;4.90;4.38;;;17.50;58.10;;;;;;4939747;28;20037;-63
2021/11/11 01:55:53;;;;;;;6.03;4.75;;;17.50;58.10;;;;;;4931964;28;20045;-63
2021/11/11 01:58:19;;;;;;;6.57;4.53;;;17.50;58.20;;;;;;4941937;28;20119;-63
2021/11/11 02:00:49;;;;;;;5.15;4.38;;;17.50;58.10;;;;;;4934997;28;20040;-63
2021/11/11 02:03:15;;;;;;;5.10;4.13;;;17.40;58.10;;;;;;4922800;28;20501;-63
2021/11/11 02:05:41;;;;;;;4.97;4.20;;;17.50;58.10;;;;;;4923768;28;20035;-63
2021/11/11 02:08:07;;;;;;;5.10;4.60;;;17.40;58.10;;;;;;4923687;28;20038;-63
2021/11/11 02:10:33;;;;;;;4.82;4.07;;;17.40;58.10;;;;;;4922396;28;20032;-62
2021/11/11 02:12:59;;;;;;;5.22;4.10;;;17.40;58.00;;;;;;4923199;29;20036;-63
2021/11/11 02:15:24;;;;;;;6.05;4.53;;;17.40;58.20;;;;;;4942489;28;20134;-63
2021/11/11 02:17:50;;;;;;;5.93;4.50;;;17.30;58.30;;;;;;4942708;28;20032;-63
2021/11/11 02:20:17;;;;;;;5.28;4.78;;;17.40;58.30;;;;;;4933398;28;20404;-63
2021/11/11 02:22:42;;;;;;;4.50;4.10;;;17.50;57.90;;;;;;4941146;28;20032;-63
2021/11/11 02:25:10;;;;;;;5.15;4.18;;;17.70;57.60;;;;;;4932995;28;20054;-63
2021/11/11 02:27:35;;;;;;;5.35;4.20;;;17.80;57.30;;;;;;4927719;28;20034;-63
2021/11/11 02:30:02;;;;;;;5.90;4.57;;;17.90;57.30;;;;;;4922865;28;20031;-63
2021/11/11 02:32:31;;;;;;;4.90;4.40;;;17.90;57.20;;;;;;4930773;28;20403;-63
2021/11/11 02:34:57;;;;;;;5.95;4.30;;;18.00;57.20;;;;;;4921837;28;20088;-63
2021/11/11 02:37:26;;;;;;;5.70;4.38;;;18.00;57.30;;;;;;4927072;28;20129;-63
2021/11/11 02:39:51;;;;;;;4.78;3.97;;;18.00;57.40;;;;;;4921522;28;20032;-63
2021/11/11 02:42:17;;;;;;;5.35;4.10;;;18.00;57.30;;;;;;4922068;28;20042;-63
2021/11/11 02:44:43;;;;;;;4.75;3.45;;;18.10;57.20;;;;;;4932564;28;20046;-63
2021/11/11 02:47:08;;;;;;;3.80;3.40;;;18.10;57.20;;;;;;4932682;28;20031;-63
2021/11/11 02:49:34;;;;;;;4.07;3.20;;;18.20;57.10;;;;;;4927097;28;20111;-63
2021/11/11 02:52:00;;;;;;;4.97;3.42;;;18.20;57.00;;;;;;4937068;28;20020;-63
2021/11/11 02:54:26;;;;;;;3.85;3.53;;;18.20;57.00;;;;;;4922310;28;20223;-63
2021/11/11 02:56:51;;;;;;;4.47;3.90;;;18.30;57.00;;;;;;4921976;28;20537;-63
2021/11/11 02:59:17;;;;;;;3.63;3.20;;;18.30;56.80;;;;;;4922194;28;20043;-63
2021/11/11 03:01:42;;;;;;;4.07;3.30;;;18.30;56.90;;;;;;4921973;28;20032;-63
2021/11/11 03:04:08;;;;;;;4.22;3.38;;;18.30;56.90;;;;;;4967823;23;20693;-55
2021/11/11 03:06:33;;;;;;;4.60;3.53;;;18.40;56.90;;;;;;4961605;28;20089;-55
2021/11/11 03:09:00;;;;;;;4.18;3.50;;;18.30;57.00;;;;;;4962621;28;20035;-52
2021/11/11 03:11:30;;;;;;;3.50;3.13;;;18.30;57.00;;;;;;4963378;28;20089;-55
2021/11/11 03:13:55;;;;;;;4.05;3.65;;;18.30;57.00;;;;;;4954950;28;20149;-55
2021/11/11 03:16:21;;;;;;;5.53;3.70;;;18.30;57.10;;;;;;4962678;28;20027;-56
2021/11/11 03:18:47;;;;;;;4.28;3.45;;;18.20;57.00;;;;;;4963171;28;20529;-53
2021/11/11 03:21:12;;;;;;;5.13;3.88;;;18.20;57.00;;;;;;4962284;28;20034;-55
2021/11/11 03:23:38;;;;;;;4.32;3.70;;;18.20;57.00;;;;;;4962754;28;20070;-55
2021/11/11 03:26:03;;;;;;;4.20;3.80;;;18.20;56.80;;;;;;4953659;28;20078;-58
2021/11/11 03:28:29;;;;;;;4.72;3.60;;;18.20;56.70;;;;;;4962008;28;20484;-56
2021/11/11 03:30:55;;;;;;;4.65;3.97;;;18.20;56.60;;;;;;4961731;28;20030;-53
2021/11/11 03:33:20;;;;;;;4.93;3.88;;;18.20;56.50;;;;;;4962568;28;20053;-54
2021/11/11 03:35:46;;;;;;;4.10;3.70;;;18.20;56.40;;;;;;4962565;28;20054;-55
2021/11/11 03:38:11;;;;;;;4.63;4.13;;;18.30;56.30;;;;;;4962483;28;20133;-54
2021/11/11 03:40:39;;;;;;;5.03;3.70;;;18.20;56.10;;;;;;4963090;28;20050;-55
2021/11/11 03:43:06;;;;;;;4.78;4.07;;;18.30;56.10;;;;;;4962232;28;20492;-53
2021/11/11 03:45:32;;;;;;;5.07;4.40;;;18.30;56.00;;;;;;4962976;28;20030;-56
2021/11/11 03:47:57;;;;;;;4.88;4.15;;;18.30;55.80;;;;;;4961415;28;20098;-55
2021/11/11 03:50:23;;;;;;;4.88;4.10;;;18.30;55.70;;;;;;4962120;28;20196;-52
2021/11/11 03:52:49;;;;;;;4.95;4.03;;;18.20;55.60;;;;;;4962331;28;20528;-52
2021/11/11 03:55:14;;;;;;;5.35;4.05;;;18.20;55.70;;;;;;4962253;28;20034;-56
2021/11/11 03:57:40;;;;;;;4.80;3.92;;;18.20;55.70;;;;;;4962428;28;20103;-53
2021/11/11 04:00:07;;;;;;;4.65;4.15;;;18.10;55.50;;;;;;4960404;28;20035;-52
2021/11/11 04:02:33;;;;;;;4.43;4.03;;;18.10;55.50;;;;;;4963212;28;20038;-54
2021/11/11 04:04:59;;;;;;;4.13;3.67;;;18.10;55.50;;;;;;4961068;28;21563;-53
2021/11/11 04:07:24;;;;;;;4.80;3.67;;;18.10;55.50;;;;;;4961556;28;20038;-56
2021/11/11 04:09:50;;;;;;;4.63;3.97;;;18.10;55.40;;;;;;4961835;28;20062;-54
2021/11/11 04:12:15;;;;;;;4.40;3.78;;;18.10;55.50;;;;;;4960528;28;20471;-54
2021/11/11 04:14:41;;;;;;;5.03;4.13;;;18.00;55.50;;;;;;4961270;28;20401;-56
2021/11/11 04:17:06;;;;;;;4.35;3.95;;;18.00;55.40;;;;;;4963889;28;20027;-56
2021/11/11 04:19:32;;;;;;;4.38;3.97;;;18.00;55.50;;;;;;4965260;28;20404;-52
2021/11/11 04:21:57;;;;;;;5.15;3.85;;;18.00;55.40;;;;;;4965852;28;20488;-55
2021/11/11 04:24:23;;;;;;;4.50;4.10;;;18.00;55.50;;;;;;4984523;28;20411;-54
2021/11/11 04:26:54;;;;;;;4.28;3.88;;;18.00;55.50;;;;;;4985817;28;20035;-52
2021/11/11 04:29:25;;;;;;;4.85;4.45;;;17.90;55.40;;;;;;4984077;28;20038;-56
2021/11/11 04:31:56;;;;;;;4.28;3.53;;;17.90;55.40;;;;;;4981914;28;20038;-52
2021/11/11 04:34:22;;;;;;;5.00;4.20;;;17.90;55.50;;;;;;4984489;28;20112;-53
2021/11/11 04:39:40;;;;;;;4.70;4.20;;;17.90;55.60;;;;;;5000476;28;20065;-55
2021/11/11 04:45:29;;;;;;;4.47;3.60;;;17.80;55.50;;;;;;4975712;28;20365;-55
2021/11/11 04:48:09;;;;;;;4.93;4.20;;;17.80;55.60;;;;;;4985464;28;20491;-54
2021/11/11 04:51:04;;;;;;;4.88;4.38;;;17.80;55.60;;;;;;4984702;28;20034;-56
2021/11/11 05:01:51;;;;;;;5.15;3.85;;;17.70;55.90;;;;;;4980024;28;20451;-53
2021/11/11 05:04:16;;;;;;;3.97;3.63;;;17.80;55.80;;;;;;4986729;28;20045;-52
2021/11/11 05:06:42;;;;;;;4.97;4.03;;;17.90;55.70;;;;;;4984454;28;20042;-52
2021/11/11 05:09:07;;;;;;;4.78;4.10;;;18.00;55.50;;;;;;5001411;28;20030;-57
2021/11/11 05:11:33;;;;;;;4.22;3.83;;;18.10;55.50;;;;;;5001012;28;20096;-52
2021/11/11 05:13:58;;;;;;;4.03;3.63;;;18.10;55.40;;;;;;4996437;28;20041;-55
2021/11/11 05:16:24;;;;;;;4.80;4.03;;;18.10;55.40;;;;;;4988855;28;20030;-55
2021/11/11 05:18:49;;;;;;;4.20;3.53;;;18.10;56.10;;;;;;4995000;28;20713;-51
2021/11/11 05:21:15;;;;;;;4.25;3.80;;;18.10;55.60;;;;;;4986100;28;20058;-53
2021/11/11 05:23:41;;;;;;;3.78;3.42;;;18.10;55.80;;;;;;4986889;28;20105;-56
2021/11/11 05:26:07;;;;;;;5.30;3.55;;;18.20;55.90;;;;;;4981985;28;20085;-56
2021/11/11 05:28:32;;;;;;;6.13;4.65;;;18.20;55.90;;;;;;4988635;28;20399;-55
2021/11/11 05:30:58;;;;;;;11.80;7.40;;;18.20;55.80;;;;;;4984605;28;20112;-56
2021/11/11 05:33:23;;;;;;;17.90;10.55;;;18.20;55.80;;;;;;4989268;28;20026;-52
2021/11/11 05:35:49;;;;;;;22.85;13.13;;;18.20;55.70;;;;;;4987284;28;20062;-53
2021/11/11 05:38:15;;;;;;;23.08;13.57;;;18.20;55.80;;;;;;4996178;28;20036;-54
2021/11/11 05:40:41;;;;;;;32.70;14.90;;;18.20;55.80;;;;;;4984280;28;20555;-54
2021/11/11 05:43:06;;;;;;;21.70;14.65;;;18.20;55.90;;;;;;4994063;28;20069;-53
2021/11/11 05:45:32;;;;;;;23.73;13.98;;;18.20;55.90;;;;;;4997753;28;20037;-53
2021/11/11 05:47:57;;;;;;;27.27;15.35;;;18.20;56.00;;;;;;4986166;28;20056;-52
2021/11/11 05:50:23;;;;;;;28.17;14.38;;;18.20;56.00;;;;;;4981500;28;20133;-53
2021/11/11 05:52:48;;;;;;;25.52;14.00;;;18.20;56.10;;;;;;4987076;28;20603;-53
2021/11/11 05:55:14;;;;;;;25.02;13.30;;;18.20;56.10;;;;;;4985015;28;20022;-52
2021/11/11 05:57:39;;;;;;;23.83;13.32;;;18.20;56.00;;;;;;4983421;28;20423;-56
2021/11/11 06:00:08;;;;;;;19.08;12.02;;;18.20;56.00;;;;;;4998889;28;20038;-52
2021/11/11 06:02:33;;;;;;;19.88;11.07;;;18.20;56.00;;;;;;4988344;28;20030;-55
2021/11/11 06:04:59;;;;;;;18.88;10.60;;;18.20;55.90;;;;;;4991210;28;20415;-53
2021/11/11 06:07:24;;;;;;;18.80;10.88;;;18.20;55.90;;;;;;4996035;28;20022;-53
2021/11/11 06:09:50;;;;;;;22.58;10.13;;;18.20;55.90;;;;;;4992021;28;20030;-55
2021/11/11 06:12:15;;;;;;;19.83;10.02;;;18.20;55.80;;;;;;4995389;28;20158;-52
2021/11/11 06:14:40;;;;;;;17.08;9.38;;;18.20;55.70;;;;;;4995189;28;20084;-52
2021/11/11 06:17:06;;;;;;;18.25;9.40;;;18.20;55.60;;;;;;4985361;28;20169;-53
2021/11/11 06:19:35;;;;;;;16.58;8.68;;;18.20;55.50;;;;;;4988754;28;20057;-53
2021/11/11 06:22:01;;;;;;;14.35;8.30;;;18.10;55.50;;;;;;4982991;28;20037;-54
2021/11/11 06:24:26;;;;;;;15.88;8.70;;;18.10;55.50;;;;;;4971752;28;20030;-53
2021/11/11 06:26:52;;;;;;;16.50;8.73;;;18.10;55.60;;;;;;4978348;28;20300;-54
2021/11/11 06:29:18;;;;;;;18.15;7.70;;;18.10;55.90;;;;;;4980308;28;20026;-53
2021/11/11 06:31:43;;;;;;;15.63;8.07;;;18.10;56.20;;;;;;4988401;28;20643;-55
2021/11/11 06:34:09;;;;;;;19.77;7.13;;;18.20;56.20;;;;;;4992705;28;20026;-56
2021/11/11 06:36:36;;;;;;;14.82;10.23;;;18.20;55.90;;;;;;4988334;28;20031;-55
2021/11/11 06:39:02;;;;;;;48.85;25.15;;;18.10;55.40;;;;;;4995425;28;20035;-53
2021/11/11 06:41:28;;;;;;;55.58;30.25;;;18.10;55.10;;;;;;4997844;28;20049;-52
2021/11/11 06:43:54;;;;;;;56.65;30.08;;;18.10;54.70;;;;;;4997680;28;20042;-55
2021/11/11 06:46:20;;;;;;;46.88;25.80;;;18.10;54.50;;;;;;4989591;28;20026;-54
2021/11/11 06:48:46;;;;;;;44.30;24.77;;;18.10;54.10;;;;;;4990339;28;20034;-54
2021/11/11 06:51:11;;;;;;;36.55;21.08;;;18.00;53.70;;;;;;4993490;28;20052;-54
2021/11/11 06:53:37;;;;;;;35.83;19.10;;;18.00;53.30;;;;;;4993870;28;20030;-56
2021/11/11 06:56:02;;;;;;;30.65;17.33;;;18.00;53.30;;;;;;5000963;28;20527;-52
2021/11/11 06:58:28;;;;;;;37.33;17.67;;;18.00;53.50;;;;;;4990991;28;20038;-52
2021/11/11 07:00:56;;;;;;;26.35;16.30;;;18.00;53.80;;;;;;4990678;28;20033;-53
2021/11/11 07:03:22;;;;;;;21.10;12.82;;;17.90;53.80;;;;;;4994339;28;20092;-56
2021/11/11 07:05:47;;;;;;;17.88;13.07;;;17.90;53.40;;;;;;4992495;28;20042;-56
2021/11/11 07:08:13;;;;;;;19.30;10.65;;;17.90;53.00;;;;;;4984121;28;20034;-56
2021/11/11 07:10:40;;;;;;;14.30;10.77;;;17.80;52.20;;;;;;4986498;28;20030;-53
2021/11/11 07:13:05;;;;;;;14.63;9.15;;;17.80;51.90;;;;;;4985417;28;20062;-53
2021/11/11 07:15:31;;;;;;;18.35;9.68;;;17.90;51.80;;;;;;4986159;28;20038;-53
2021/11/11 07:17:56;;;;;;;17.85;8.85;;;17.90;51.60;;;;;;4983363;28;20392;-52
2021/11/11 07:20:22;;;;;;;13.40;8.18;;;17.90;51.60;;;;;;4993506;28;20048;-51
2021/11/11 07:22:48;;;;;;;10.18;7.70;;;17.90;51.80;;;;;;4990241;28;20038;-52
2021/11/11 07:25:14;;;;;;;12.60;7.60;;;17.80;51.90;;;;;;4979938;28;20125;-53
2021/11/11 07:27:40;;;;;;;13.60;7.60;;;17.80;51.80;;;;;;4998182;28;20030;-54
2021/11/11 07:30:08;;;;;;;12.57;8.10;;;17.80;51.90;;;;;;4994283;28;20130;-51
2021/11/11 07:32:33;;;;;;;12.32;7.57;;;17.90;51.90;;;;;;4980585;28;20037;-53
2021/11/11 07:34:59;;;;;;;12.45;7.78;;;18.00;51.90;;;;;;4981344;28;20031;-51
2021/11/11 07:37:24;;;;;;;11.82;7.25;;;18.00;51.60;;;;;;4981742;28;20526;-55
2021/11/11 07:39:52;;;;;;;10.52;6.53;;;18.00;51.50;;;;;;4982350;28;20117;-55
2021/11/11 07:42:19;;;;;;;11.13;6.43;;;18.10;51.50;;;;;;4982278;28;20061;-54
2021/11/11 07:44:45;;;;;;;10.73;7.07;;;18.10;51.50;;;;;;4980819;28;20060;-53
2021/11/11 07:47:11;;;;;;;12.93;7.25;;;18.10;51.70;;;;;;4981231;28;20027;-51
2021/11/11 07:49:36;;;;;;;12.23;6.60;;;18.10;51.70;;;;;;4975598;28;20034;-54
2021/11/11 07:52:02;;;;;;;11.70;6.15;;;18.10;51.90;;;;;;4981692;28;20030;-53
2021/11/11 07:54:28;;;;;;;11.30;5.97;;;18.10;52.00;;;;;;4980791;28;20041;-51
2021/11/11 07:56:55;;;;;;;10.60;6.55;;;18.10;52.20;;;;;;4980649;28;20121;-52
2021/11/11 07:59:21;;;;;;;11.75;7.28;;;18.10;52.50;;;;;;4980960;28;20022;-52
2021/11/11 08:01:46;;;;;;;9.95;6.60;;;18.10;52.70;;;;;;4978473;28;20030;-52
2021/11/11 08:04:12;;;;;;;8.65;5.88;;;18.10;52.80;;;;;;4984500;28;20072;-55
2021/11/11 08:06:37;;;;;;;10.43;6.28;;;18.10;53.00;;;;;;4986853;28;20495;-55
2021/11/11 08:09:03;;;;;;;11.15;7.30;;;18.10;53.10;;;;;;4981878;28;20046;-56
2021/11/11 08:11:29;;;;;;;14.20;6.18;;;18.20;53.10;;;;;;4980265;28;20112;-55
2021/11/11 08:13:54;;;;;;;11.73;6.85;;;18.20;53.00;;;;;;4981497;28;20057;-56
2021/11/11 08:16:20;;;;;;;13.30;6.57;;;18.20;53.00;;;;;;4981541;28;20496;-48
2021/11/11 08:18:45;;;;;;;12.98;7.40;;;18.20;53.00;;;;;;4981099;28;20146;-52
2021/11/11 08:21:11;;;;;;;14.75;7.90;;;18.10;53.10;;;;;;4980407;28;20081;-57
2021/11/11 08:23:37;;;;;;;9.55;7.28;;;18.10;53.30;;;;;;4981130;28;20093;-51
2021/11/11 08:26:04;;;;;;;10.13;7.05;;;18.10;53.20;;;;;;4981292;28;20031;-49
2021/11/11 08:28:30;;;;;;;10.65;7.50;;;18.10;53.20;;;;;;4971842;28;20034;-51
2021/11/11 08:30:55;;;;;;;11.15;8.57;;;18.10;53.20;;;;;;4979397;28;20042;-55
2021/11/11 08:33:21;;;;;;;12.23;8.30;;;18.10;53.20;;;;;;4979554;28;20035;-52
2021/11/11 08:35:47;;;;;;;13.40;8.23;;;18.10;53.10;;;;;;4979876;28;20187;-52
2021/11/11 08:38:13;;;;;;;10.77;8.35;;;18.10;53.10;;;;;;4980930;28;20508;-52
2021/11/11 08:40:39;;;;;;;10.40;8.60;;;18.10;53.10;;;;;;4981515;28;20111;-55
2021/11/11 08:43:04;;;;;;;12.10;7.85;;;18.10;53.10;;;;;;4979577;28;20033;-54
2021/11/11 08:45:30;;;;;;;15.88;8.80;;;18.10;53.10;;;;;;4979128;28;20030;-55
2021/11/11 08:47:56;;;;;;;10.93;7.47;;;18.10;53.10;;;;;;4979181;28;20038;-50
2021/11/11 08:50:23;;;;;;;13.20;9.45;;;18.10;53.20;;;;;;4980339;28;20058;-54
2021/11/11 08:52:54;;;;;;;9.57;7.47;;;18.10;53.20;;;;;;4972272;28;20038;-48
2021/11/11 08:55:21;;;;;;;12.05;8.32;;;18.10;53.30;;;;;;4980197;28;20563;-52
2021/11/11 08:57:46;;;;;;;11.05;7.68;;;18.00;53.30;;;;;;4980569;28;20033;-52
2021/11/11 09:00:24;;;;;;;12.48;8.48;;;18.00;53.40;;;;;;4980787;28;20034;-58
2021/11/11 09:02:52;;;;;;;11.23;8.27;;;18.00;53.40;;;;;;4983078;28;20034;-58
2021/11/11 09:05:18;;;;;;;9.13;7.95;;;18.00;53.40;;;;;;4983878;23;20121;-54
2021/11/11 09:07:43;;;;;;;10.43;7.43;;;18.00;53.40;;;;;;4980416;28;20031;-55
2021/11/11 09:10:10;;;;;;;10.13;7.63;;;18.00;53.40;;;;;;4980615;28;20106;-52
2021/11/11 09:12:36;;;;;;;10.23;8.00;;;18.00;53.40;;;;;;4970624;28;20484;-53
2021/11/11 09:15:03;;;;;;;8.32;7.07;;;18.00;53.20;;;;;;4980766;28;20029;-55
2021/11/11 09:17:29;;;;;;;8.95;7.38;;;18.00;53.20;;;;;;4981036;28;20034;-54
2021/11/11 09:19:54;;;;;;;11.60;7.35;;;18.00;53.10;;;;;;4981392;28;20563;-54
2021/11/11 09:22:20;;;;;;;9.48;8.07;;;18.00;53.10;;;;;;4980904;28;20030;-53
2021/11/11 09:24:46;;;;;;;9.48;8.05;;;18.00;53.10;;;;;;4981353;28;20034;-54
2021/11/11 09:27:11;;;;;;;8.55;7.57;;;18.00;53.20;;;;;;4981133;28;20029;-52
2021/11/11 09:29:37;;;;;;;9.45;6.95;;;18.00;53.30;;;;;;4982324;28;20023;-57
2021/11/11 09:32:03;;;;;;;8.45;6.68;;;18.00;53.20;;;;;;4981824;28;20739;-56
2021/11/11 09:34:28;;;;;;;9.77;7.10;;;17.90;53.30;;;;;;4981548;28;20395;-53
2021/11/11 09:36:54;;;;;;;9.13;6.88;;;17.90;53.30;;;;;;4981810;28;20045;-54
2021/11/11 09:39:19;;;;;;;8.05;6.90;;;17.90;53.30;;;;;;4982481;28;20030;-55
2021/11/11 09:41:45;;;;;;;14.55;8.07;;;17.90;53.20;;;;;;4982370;28;20058;-56
2021/11/11 09:44:10;;;;;;;9.45;7.05;;;17.90;53.20;;;;;;4964381;28;20602;-54
2021/11/11 09:46:36;;;;;;;9.23;6.60;;;17.90;53.30;;;;;;4981724;28;20030;-51
2021/11/11 09:49:02;;;;;;;9.38;7.03;;;17.90;53.30;;;;;;4982777;28;20042;-50
2021/11/11 09:51:28;;;;;;;7.55;6.60;;;17.90;53.30;;;;;;4982213;28;20069;-51
2021/11/11 09:54:00;;;;;;;7.35;6.53;;;17.90;53.30;;;;;;4982293;28;20464;-53
2021/11/11 09:59:10;;;;;;;7.18;5.95;;;17.90;53.30;;;;;;4979284;28;20530;-61
2021/11/11 10:01:35;;;;;;;7.18;6.47;;;17.90;53.30;;;;;;4981590;28;20030;-52
2021/11/11 10:04:01;;;;;;;7.50;5.90;;;17.90;53.30;;;;;;4981755;28;20041;-54
2021/11/11 10:06:27;;;;;;;6.93;5.72;;;17.90;53.30;;;;;;4981184;28;20053;-50
2021/11/11 10:08:57;;;;;;;7.53;6.25;;;17.90;53.30;;;;;;4981422;28;20062;-55
2021/11/11 10:11:23;;;;;;;7.82;6.00;;;17.90;53.30;;;;;;4982186;28;20030;-54
2021/11/11 10:13:54;;;;;;;8.10;5.97;;;17.90;53.20;;;;;;4979653;28;20037;-54
2021/11/11 10:16:19;;;;;;;8.25;5.88;;;17.90;53.30;;;;;;4979565;28;20037;-56
2021/11/11 10:18:48;;;;;;;7.25;6.05;;;17.80;53.20;;;;;;4980662;28;20034;-57
2021/11/11 10:21:35;;;;;;;7.60;6.38;;;17.80;53.20;;;;;;4981567;28;20038;-54
2021/11/11 10:24:17;;;;;;;7.55;6.00;;;17.80;53.20;;;;;;4981579;28;20062;-54
2021/11/11 10:26:57;;;;;;;6.45;5.85;;;17.80;53.20;;;;;;4978974;28;20109;-53
2021/11/11 10:29:33;;;;;;;9.90;6.75;;;17.80;53.20;;;;;;4982014;28;20559;-56
2021/11/11 10:32:07;;;;;;;6.43;5.68;;;17.80;53.20;;;;;;4980257;28;20044;-51
2021/11/11 10:34:42;;;;;;;6.63;5.20;;;17.70;53.20;;;;;;4980786;28;20031;-54
2021/11/11 10:37:08;;;;;;;6.80;5.57;;;17.70;53.10;;;;;;4970648;28;20669;-55
2021/11/11 10:39:34;;;;;;;7.25;5.72;;;17.80;53.10;;;;;;4962256;28;20053;-52
2021/11/11 10:42:00;;;;;;;7.20;5.68;;;17.80;53.20;;;;;;4979238;28;20030;-50
2021/11/11 10:44:27;;;;;;;6.00;5.40;;;17.80;53.40;;;;;;4978657;28;20065;-54
2021/11/11 10:46:58;;;;;;;6.63;5.47;;;17.80;53.40;;;;;;4979602;28;20030;-56
2021/11/11 10:49:28;;;;;;;7.07;5.68;;;17.80;53.40;;;;;;4981293;28;20133;-51
2021/11/11 10:51:55;;;;;;;5.63;5.07;;;17.80;53.20;;;;;;4980766;28;20027;-53
2021/11/11 10:54:21;;;;;;;8.38;6.47;;;17.80;53.20;;;;;;4980868;28;20126;-51
2021/11/11 10:56:47;;;;;;;6.25;5.65;;;17.90;53.20;;;;;;4986269;28;20121;-56
2021/11/11 10:59:19;;;;;;;6.20;5.60;;;17.90;53.20;;;;;;4978688;28;20034;-53
2021/11/11 11:01:45;;;;;;;6.57;5.40;;;17.90;53.20;;;;;;4977447;28;20113;-53
2021/11/11 11:04:23;;;;;;;5.80;5.05;;;17.90;53.10;;;;;;4976395;28;20042;-51
2021/11/11 11:06:48;;;;;;;6.22;5.53;;;18.00;53.20;;;;;;4978303;28;20042;-54
2021/11/11 11:09:14;;;;;;;6.53;5.43;;;17.90;53.20;;;;;;4990979;28;20030;-56
2021/11/11 11:11:41;;;;;;;6.45;5.57;;;18.00;53.10;;;;;;4990917;28;20165;-57
2021/11/11 11:14:16;;;;;;;6.22;5.13;;;18.00;53.10;;;;;;4978402;28;20027;-55
2021/11/11 11:16:42;;;;;;;7.70;5.38;;;17.90;53.20;;;;;;4971243;28;20730;-54
2021/11/11 11:19:12;;;;;;;6.78;5.70;;;18.00;53.10;;;;;;4982503;28;20030;-54
2021/11/11 11:21:42;;;;;;;5.80;5.28;;;17.90;53.10;;;;;;4981829;28;20559;-52
2021/11/11 11:24:09;;;;;;;5.53;4.85;;;18.00;53.10;;;;;;4981486;28;20035;-55
2021/11/11 11:26:43;;;;;;;6.55;5.70;;;18.00;53.80;;;;;;4981427;28;20106;-55
2021/11/11 11:29:13;;;;;;;6.40;5.30;;;18.00;53.20;;;;;;4955415;28;20045;-52
2021/11/11 11:31:43;;;;;;;5.32;4.82;;;18.00;53.90;;;;;;4981651;28;20038;-51
2021/11/11 11:34:15;;;;;;;6.15;5.55;;;17.90;53.20;;;;;;4981949;28;20478;-54
2021/11/11 11:37:02;;;;;;;6.28;5.38;;;17.90;53.20;;;;;;4966810;28;20038;-53
2021/11/11 11:39:39;;;;;;;6.00;5.18;;;18.00;53.30;;;;;;4981265;28;20488;-53
2021/11/11 11:42:08;;;;;;;6.07;5.47;;;18.00;53.30;;;;;;4977513;28;20038;-52
2021/11/11 11:44:41;;;;;;;5.20;4.68;;;18.00;53.20;;;;;;4971702;28;20439;-53
2021/11/11 11:47:12;;;;;;;5.28;4.78;;;18.00;53.30;;;;;;4981582;28;20103;-53
2021/11/11 11:49:39;;;;;;;6.15;5.43;;;17.90;53.20;;;;;;4964898;28;20034;-54
2021/11/11 11:52:05;;;;;;;6.47;5.03;;;18.00;53.20;;;;;;4981261;28;20694;-56
2021/11/11 11:57:01;;;;;;;5.85;5.25;;;18.00;53.20;;;;;;4981048;28;20172;-54
2021/11/11 11:59:32;;;;;;;5.53;5.03;;;18.00;53.30;;;;;;4976731;28;20050;-55
2021/11/11 12:02:08;;;;;;;6.25;5.65;;;18.00;53.30;;;;;;4969577;28;20038;-52
2021/11/11 12:04:53;;;;;;;5.88;5.28;;;18.00;53.40;;;;;;4976389;28;20111;-51
2021/11/11 12:07:35;;;;;;;8.68;4.95;;;18.00;53.30;;;;;;4973788;28;20034;-53
2021/11/11 12:10:19;;;;;;;6.38;5.38;;;18.00;53.30;;;;;;4978016;28;20131;-54
2021/11/11 12:15:48;;;;;;;5.53;5.03;;;18.00;53.30;;;;;;4981361;28;20062;-53
2021/11/11 12:39:54;;;;;;;5.22;4.68;;;18.00;53.30;;;;;;4987325;28;20041;-53
2021/11/11 12:42:23;;;;;;;6.10;5.50;;;18.00;53.30;;;;;;4985622;28;20605;-52
2021/11/11 12:45:01;;;;;;;6.38;4.55;;;17.90;53.30;;;;;;4978374;28;20042;-49
2021/11/11 12:47:35;;;;;;;6.38;4.93;;;18.00;53.30;;;;;;4986705;28;20030;-56
2021/11/11 12:50:28;;;;;;;6.22;5.18;;;18.00;53.30;;;;;;4980356;28;20114;-55
2021/11/11 12:55:38;;;;;;;7.22;5.55;;;18.00;53.30;;;;;;4985086;28;20041;-58
2021/11/11 12:58:05;;;;;;;5.85;4.82;;;18.00;53.30;;;;;;4989274;28;20034;-52
2021/11/11 13:00:38;;;;;;;6.82;5.15;;;18.00;53.60;;;;;;4984489;28;20046;-55
2021/11/11 13:03:06;;;;;;;5.45;4.95;;;18.00;53.30;;;;;;4973682;28;20028;-55
2021/11/11 13:05:48;;;;;;;5.63;4.50;;;18.00;53.30;;;;;;4983226;28;20427;-54
2021/11/11 13:08:16;;;;;;;5.78;4.97;;;18.00;53.30;;;;;;4983603;28;20046;-54
2021/11/11 13:10:57;;;;;;;5.47;4.55;;;18.00;53.30;;;;;;4973933;28;20435;-51
2021/11/11 13:13:26;;;;;;;6.40;5.03;;;18.00;53.30;;;;;;4979847;28;20030;-57
2021/11/11 13:15:56;;;;;;;5.72;4.80;;;18.00;53.30;;;;;;4973986;28;20046;-53
2021/11/11 13:18:40;;;;;;;7.03;5.03;;;17.90;53.20;;;;;;4989890;28;20037;-56
2021/11/11 13:21:08;;;;;;;6.03;5.43;;;18.00;53.30;;;;;;4977637;28;20022;-52
2021/11/11 13:23:41;;;;;;;6.57;5.25;;;18.00;53.30;;;;;;4995949;28;20037;-49
2021/11/11 13:26:48;;;;;;;7.97;5.82;;;18.00;53.90;;;;;;4978634;28;20029;-52
2021/11/11 13:58:49;;;;;;;5.70;4.47;;;18.00;53.20;;;;;;4984398;28;20038;-52
2021/11/11 14:00:29;;;;;;;6.68;5.20;;;18.00;53.20;;;;;;4983208;28;20501;-55